Time;durP1;ratioP1;P1;durP2;ratioP2;P2;SDS_P1;SDS_P2;PMS_P1;PMS_P2;Temp;Humidity;BMP_temperature;BMP_pressure;BME280_temperature;BME280_humidity;BME280_pressure;Samples;Min_cycle;Max_cycle;Signal;HPM_P1;HPM_P2
2022/04/03 00:01:26;;;;;;;0.40;0.40;;;-1.80;99.90;;;;;;5053331;28;20507;-67
2022/04/03 00:04:14;;;;;;;0.40;0.40;;;-1.80;99.90;;;;;;5052357;28;20424;-66
2022/04/03 00:07:02;;;;;;;0.40;0.40;;;-1.80;99.90;;;;;;5052180;28;20784;-67
2022/04/03 00:09:50;;;;;;;0.40;0.40;;;-1.80;99.90;;;;;;5052413;28;21008;-67
2022/04/03 00:12:37;;;;;;;0.40;0.40;;;-1.90;99.90;;;;;;5052029;28;20456;-67
2022/04/03 00:15:24;;;;;;;0.50;0.50;;;-1.90;99.90;;;;;;5052026;28;20437;-67
2022/04/03 00:18:11;;;;;;;0.40;0.40;;;-1.90;99.90;;;;;;5058125;28;20425;-67
2022/04/03 00:20:58;;;;;;;0.40;0.40;;;-1.90;99.90;;;;;;5059125;28;20417;-67
2022/04/03 00:23:47;;;;;;;0.40;0.40;;;-2.00;99.90;;;;;;5059131;28;20987;-67
2022/04/03 00:26:35;;;;;;;0.40;0.40;;;-2.00;99.90;;;;;;5059328;28;20485;-66
2022/04/03 00:29:23;;;;;;;0.50;0.50;;;-2.00;99.90;;;;;;5060258;28;20465;-66
2022/04/03 00:32:10;;;;;;;0.40;0.40;;;-1.90;99.90;;;;;;5060446;28;20456;-66
2022/04/03 00:34:57;;;;;;;0.40;0.40;;;-1.90;99.90;;;;;;5061549;28;20433;-68
2022/04/03 00:37:44;;;;;;;0.40;0.40;;;-2.00;99.90;;;;;;5059647;28;20425;-68
2022/04/03 00:40:31;;;;;;;0.40;0.40;;;-2.10;99.90;;;;;;5057709;28;20425;-67
2022/04/03 00:43:20;;;;;;;0.40;0.40;;;-2.10;99.90;;;;;;5058447;28;20453;-67
2022/04/03 00:46:07;;;;;;;0.40;0.40;;;-2.20;99.90;;;;;;5057833;28;20429;-66
2022/04/03 00:48:54;;;;;;;0.40;0.40;;;-2.20;99.90;;;;;;5052895;28;20898;-67
2022/04/03 00:51:41;;;;;;;0.40;0.40;;;-2.20;99.90;;;;;;5050426;28;20463;-67
2022/04/03 00:54:29;;;;;;;0.80;0.80;;;-2.20;99.90;;;;;;5051815;28;20428;-67
2022/04/03 00:57:16;;;;;;;1.07;0.50;;;-2.10;99.90;;;;;;5060906;28;20519;-67
2022/04/03 01:00:06;;;;;;;0.40;0.40;;;-2.30;99.90;;;;;;5071008;28;20937;-66
2022/04/03 01:02:53;;;;;;;0.80;0.80;;;-2.30;99.90;;;;;;5071421;28;20452;-67
2022/04/03 01:05:41;;;;;;;0.60;0.60;;;-2.30;99.90;;;;;;5071855;28;20439;-67
2022/04/03 01:08:29;;;;;;;0.40;0.40;;;-2.30;99.90;;;;;;5072257;28;21069;-67
2022/04/03 01:11:21;;;;;;;0.40;0.40;;;-2.40;99.90;;;;;;5071953;28;20441;-67
2022/04/03 01:14:08;;;;;;;0.40;0.40;;;-2.40;99.90;;;;;;5071468;28;20417;-66
2022/04/03 01:16:56;;;;;;;1.07;1.03;;;-2.40;99.90;;;;;;5071689;28;20424;-66
2022/04/03 01:19:43;;;;;;;0.50;0.50;;;-2.50;99.90;;;;;;5071372;28;20766;-67
2022/04/03 01:22:30;;;;;;;0.40;0.40;;;-2.50;99.90;;;;;;5072008;28;20436;-67
2022/04/03 01:25:18;;;;;;;0.43;0.43;;;-2.50;99.90;;;;;;5075937;28;20420;-67
2022/04/03 01:28:06;;;;;;;1.00;1.00;;;-2.50;99.90;;;;;;5078091;28;20420;-67
2022/04/03 01:30:53;;;;;;;1.17;1.07;;;-2.50;99.90;;;;;;5076782;28;20474;-68
2022/04/03 01:33:40;;;;;;;0.40;0.40;;;-2.50;99.90;;;;;;5075552;28;20860;-67
2022/04/03 01:36:26;;;;;;;0.50;0.50;;;-2.30;99.90;;;;;;5076874;28;20416;-68
2022/04/03 01:39:14;;;;;;;0.40;0.40;;;-2.50;99.90;;;;;;5072402;28;20428;-67
2022/04/03 01:42:03;;;;;;;0.60;0.60;;;-2.50;99.90;;;;;;5070900;28;20459;-67
2022/04/03 01:44:50;;;;;;;0.40;0.40;;;-2.50;99.90;;;;;;5072339;28;20439;-67
2022/04/03 01:47:37;;;;;;;0.40;0.40;;;-2.50;99.90;;;;;;5072187;28;20420;-67
2022/04/03 01:50:24;;;;;;;0.40;0.40;;;-2.50;99.90;;;;;;5063310;28;20475;-68
2022/04/03 01:53:12;;;;;;;0.50;0.50;;;-2.50;99.90;;;;;;5072651;28;20467;-67
2022/04/03 01:56:01;;;;;;;0.40;0.40;;;-2.30;99.90;;;;;;5073116;28;20432;-67
2022/04/03 01:58:49;;;;;;;0.40;0.40;;;-2.40;99.90;;;;;;5052083;28;20429;-67
2022/04/03 02:01:36;;;;;;;0.40;0.40;;;-2.30;99.90;;;;;;5052414;28;20450;-67
2022/04/03 02:04:23;;;;;;;0.40;0.40;;;-2.30;99.90;;;;;;5054792;28;20425;-67
2022/04/03 02:07:10;;;;;;;0.40;0.40;;;-2.20;99.90;;;;;;5054349;28;20433;-67
2022/04/03 02:09:57;;;;;;;0.40;0.40;;;-2.10;99.90;;;;;;5055740;28;20476;-66
2022/04/03 02:12:45;;;;;;;0.40;0.40;;;-2.10;99.90;;;;;;5053912;28;20448;-66
2022/04/03 02:15:34;;;;;;;0.50;0.50;;;-2.00;99.90;;;;;;5053937;28;20452;-66
2022/04/03 02:18:21;;;;;;;0.40;0.40;;;-1.90;99.90;;;;;;5054657;28;20509;-66
2022/04/03 02:21:08;;;;;;;0.40;0.40;;;-1.80;99.90;;;;;;5054145;28;20418;-67
2022/04/03 02:23:55;;;;;;;0.40;0.40;;;-1.80;99.90;;;;;;5053940;28;20429;-67
2022/04/03 02:26:42;;;;;;;0.40;0.40;;;-1.80;99.90;;;;;;5055342;28;20949;-66
2022/04/03 02:29:29;;;;;;;0.40;0.40;;;-1.70;99.90;;;;;;5054711;28;20508;-67
2022/04/03 02:32:17;;;;;;;0.40;0.40;;;-1.60;99.90;;;;;;5053344;28;20449;-68
2022/04/03 02:35:06;;;;;;;0.40;0.40;;;-1.60;99.90;;;;;;5054077;28;20425;-66
2022/04/03 02:37:53;;;;;;;0.40;0.40;;;-1.50;99.90;;;;;;5054722;28;20512;-67
2022/04/03 02:40:40;;;;;;;0.40;0.40;;;-1.40;99.90;;;;;;5053904;28;20811;-66
2022/04/03 02:43:26;;;;;;;0.40;0.40;;;-1.40;99.90;;;;;;5054149;28;20421;-66
2022/04/03 02:46:13;;;;;;;0.40;0.40;;;-1.30;99.90;;;;;;5054912;28;20436;-66
2022/04/03 02:49:02;;;;;;;0.40;0.40;;;-1.30;99.90;;;;;;5054653;28;20429;-67
2022/04/03 02:51:50;;;;;;;0.40;0.40;;;-1.10;99.90;;;;;;5053628;28;20460;-67
2022/04/03 02:54:37;;;;;;;0.40;0.40;;;-1.10;99.90;;;;;;5054469;28;20787;-67
2022/04/03 02:57:24;;;;;;;0.50;0.50;;;-1.10;99.90;;;;;;5064298;28;20428;-66
2022/04/03 03:00:14;;;;;;;0.97;0.97;;;-1.00;99.90;;;;;;5073807;28;20432;-67
2022/04/03 03:03:02;;;;;;;0.40;0.40;;;-1.10;99.90;;;;;;5073536;28;20444;-67
2022/04/03 03:05:50;;;;;;;1.30;1.20;;;-1.10;99.90;;;;;;5074253;28;20850;-66
2022/04/03 03:08:37;;;;;;;0.40;0.40;;;-1.00;99.90;;;;;;5073446;28;20431;-66
2022/04/03 03:11:24;;;;;;;0.40;0.40;;;-1.00;99.90;;;;;;5072639;28;20476;-67
2022/04/03 03:14:11;;;;;;;0.40;0.40;;;-1.00;99.90;;;;;;5072954;28;20959;-70
2022/04/03 03:16:58;;;;;;;0.40;0.40;;;-1.00;99.90;;;;;;5073734;28;20431;-68
2022/04/03 03:19:45;;;;;;;1.37;1.37;;;-0.90;99.90;;;;;;5076425;28;20477;-68
2022/04/03 03:22:33;;;;;;;0.40;0.40;;;-0.90;99.90;;;;;;5076118;28;20987;-67
2022/04/03 03:25:20;;;;;;;0.63;0.63;;;-0.90;99.90;;;;;;5074247;28;20435;-69
2022/04/03 03:28:08;;;;;;;0.40;0.40;;;-0.90;99.90;;;;;;5073810;28;20431;-68
2022/04/03 03:30:55;;;;;;;0.87;0.87;;;-0.90;99.90;;;;;;5074989;28;21013;-67
2022/04/03 03:33:42;;;;;;;0.40;0.40;;;-0.90;99.90;;;;;;5073356;28;20435;-68
2022/04/03 03:36:29;;;;;;;0.50;0.50;;;-0.80;99.90;;;;;;5074482;28;20424;-68
2022/04/03 03:39:17;;;;;;;0.40;0.40;;;-0.80;99.90;;;;;;5073856;28;21006;-68
2022/04/03 03:42:05;;;;;;;0.40;0.40;;;-0.80;99.90;;;;;;5074099;28;20436;-67
2022/04/03 03:44:52;;;;;;;0.40;0.40;;;-0.80;99.90;;;;;;5073547;28;20432;-67
2022/04/03 03:47:39;;;;;;;0.40;0.40;;;-0.70;99.90;;;;;;5074928;28;20436;-67
2022/04/03 03:50:26;;;;;;;0.50;0.50;;;-0.60;99.90;;;;;;5073736;28;20464;-68
2022/04/03 03:53:13;;;;;;;0.50;0.50;;;-0.70;99.90;;;;;;5072640;28;20471;-66
2022/04/03 03:56:01;;;;;;;0.40;0.40;;;-0.80;99.90;;;;;;5074083;28;20431;-68
2022/04/03 03:58:48;;;;;;;0.50;0.50;;;-0.80;99.90;;;;;;5055534;28;20413;-67
2022/04/03 04:01:35;;;;;;;0.40;0.40;;;-0.80;99.90;;;;;;5059257;28;20449;-67
2022/04/03 04:04:22;;;;;;;0.40;0.40;;;-0.80;99.90;;;;;;5075465;28;20469;-67
2022/04/03 04:07:09;;;;;;;0.63;0.63;;;-0.90;99.90;;;;;;5092930;28;20565;-67
2022/04/03 04:09:56;;;;;;;0.40;0.40;;;-0.90;99.90;;;;;;5093343;28;20970;-66
2022/04/03 04:12:47;;;;;;;0.40;0.40;;;-0.70;99.90;;;;;;5092860;28;20806;-66
2022/04/03 04:15:33;;;;;;;0.40;0.40;;;-0.80;99.90;;;;;;5093057;28;20914;-68
2022/04/03 04:18:20;;;;;;;0.40;0.40;;;-0.70;99.90;;;;;;5092666;28;20419;-68
2022/04/03 04:21:07;;;;;;;0.40;0.40;;;-0.70;99.90;;;;;;5096533;28;20420;-69
2022/04/03 04:23:54;;;;;;;0.40;0.40;;;-0.80;99.90;;;;;;5098389;28;20430;-67
2022/04/03 04:26:41;;;;;;;0.40;0.40;;;-0.80;99.90;;;;;;5099989;28;20438;-67
2022/04/03 04:29:29;;;;;;;0.40;0.40;;;-0.70;99.90;;;;;;5102543;28;20492;-69
2022/04/03 04:32:16;;;;;;;0.40;0.40;;;-0.70;99.90;;;;;;5103456;28;20439;-69
2022/04/03 04:35:04;;;;;;;0.40;0.40;;;-0.70;99.90;;;;;;5098586;28;20430;-67
2022/04/03 04:37:52;;;;;;;0.50;0.50;;;-0.70;99.90;;;;;;5098775;28;20505;-67
2022/04/03 04:40:38;;;;;;;0.40;0.40;;;-0.70;99.90;;;;;;5098332;28;20940;-69
2022/04/03 04:43:25;;;;;;;0.40;0.40;;;-0.60;99.90;;;;;;5095929;28;20778;-67
2022/04/03 04:46:14;;;;;;;0.40;0.40;;;-0.60;99.90;;;;;;5092835;28;20431;-67
2022/04/03 04:49:01;;;;;;;0.40;0.40;;;-0.60;99.90;;;;;;5092601;28;20458;-67
2022/04/03 04:51:48;;;;;;;0.50;0.50;;;-0.60;99.90;;;;;;5091442;28;20477;-67
2022/04/03 04:54:35;;;;;;;0.40;0.40;;;-0.70;99.90;;;;;;5092069;28;20442;-67
2022/04/03 04:57:22;;;;;;;0.40;0.40;;;-0.70;99.90;;;;;;5080684;28;20979;-69
2022/04/03 05:00:13;;;;;;;0.40;0.40;;;-0.70;99.90;;;;;;5072085;28;20420;-67
2022/04/03 05:03:02;;;;;;;0.40;0.40;;;-0.70;99.90;;;;;;5071330;28;20436;-67
2022/04/03 05:05:49;;;;;;;0.40;0.40;;;-0.70;99.90;;;;;;5071593;28;20797;-66
2022/04/03 05:08:36;;;;;;;0.60;0.60;;;-0.70;99.90;;;;;;5070842;28;20971;-69
2022/04/03 05:11:23;;;;;;;0.40;0.40;;;-0.70;99.90;;;;;;5071922;28;20512;-68
2022/04/03 05:14:10;;;;;;;0.40;0.40;;;-0.70;99.90;;;;;;5072252;28;20450;-68
2022/04/03 05:16:57;;;;;;;0.40;0.40;;;-0.70;99.90;;;;;;5072069;28;20840;-68
2022/04/03 05:19:45;;;;;;;0.40;0.40;;;-0.70;99.90;;;;;;5072201;28;20436;-69
2022/04/03 05:22:32;;;;;;;0.40;0.40;;;-0.80;99.90;;;;;;5070347;28;20440;-66
2022/04/03 05:25:19;;;;;;;0.70;0.70;;;-0.70;99.90;;;;;;5071999;28;20417;-68
2022/04/03 05:28:08;;;;;;;0.40;0.40;;;-0.60;99.90;;;;;;5071228;28;20453;-69
2022/04/03 05:30:56;;;;;;;0.50;0.50;;;;;;;;;;5071976;28;20486;-67
2022/04/03 05:33:42;;;;;;;0.50;0.50;;;-0.80;99.90;;;;;;5071036;28;20431;-68
2022/04/03 05:36:31;;;;;;;0.40;0.40;;;-0.60;99.90;;;;;;5071345;28;20421;-66
2022/04/03 05:39:18;;;;;;;0.40;0.40;;;-0.60;99.90;;;;;;5074912;28;20424;-67
2022/04/03 05:42:05;;;;;;;0.50;0.50;;;-0.40;99.90;;;;;;5073984;28;20490;-67
2022/04/03 05:44:52;;;;;;;0.60;0.60;;;-0.40;99.90;;;;;;5075207;28;20456;-67
2022/04/03 05:47:40;;;;;;;2.43;2.23;;;-0.30;99.90;;;;;;5075179;28;20428;-68
2022/04/03 05:50:27;;;;;;;0.40;0.40;;;-0.10;99.90;;;;;;5075547;28;20456;-66
2022/04/03 05:53:15;;;;;;;0.40;0.40;;;0.10;99.90;;;;;;5073982;28;20459;-66
2022/04/03 05:56:03;;;;;;;0.70;0.70;;;0.10;99.90;;;;;;5075476;28;20782;-66
2022/04/03 05:58:50;;;;;;;0.40;0.40;;;0.20;99.90;;;;;;5055554;28;20421;-67
2022/04/03 06:01:37;;;;;;;0.50;0.50;;;0.30;99.90;;;;;;5063664;28;20444;-70
2022/04/03 06:04:24;;;;;;;0.90;0.87;;;0.30;99.90;;;;;;5075235;28;20447;-67
2022/04/03 06:07:11;;;;;;;0.40;0.40;;;0.30;99.90;;;;;;5080003;28;20419;-67
2022/04/03 06:09:59;;;;;;;0.70;0.70;;;0.40;99.90;;;;;;5087711;28;20863;-69
2022/04/03 06:12:54;;;;;;;0.40;0.40;;;0.40;99.90;;;;;;5086188;28;20454;-67
2022/04/03 06:15:43;;;;;;;0.40;0.40;;;0.40;99.90;;;;;;5086703;28;20449;-67
2022/04/03 06:18:30;;;;;;;0.70;0.70;;;0.50;99.90;;;;;;5086576;28;20412;-67
2022/04/03 06:21:17;;;;;;;0.40;0.40;;;0.70;99.90;;;;;;5080372;28;20432;-69
2022/04/03 06:24:05;;;;;;;1.13;0.90;;;0.70;99.90;;;;;;5082457;28;20428;-69
2022/04/03 06:26:53;;;;;;;0.50;0.50;;;0.70;99.90;;;;;;5077988;28;20499;-68
2022/04/03 06:29:40;;;;;;;0.40;0.40;;;0.70;99.90;;;;;;5078089;28;20427;-66
2022/04/03 06:32:29;;;;;;;0.40;0.40;;;0.80;99.90;;;;;;5077502;28;20463;-67
2022/04/03 06:35:15;;;;;;;0.60;0.60;;;0.80;99.90;;;;;;5075655;28;20420;-67
2022/04/03 06:38:03;;;;;;;0.40;0.40;;;0.90;99.90;;;;;;5074433;28;20424;-68
2022/04/03 06:40:51;;;;;;;0.40;0.40;;;0.90;99.90;;;;;;5074569;28;20936;-67
2022/04/03 06:43:39;;;;;;;0.40;0.40;;;0.90;99.90;;;;;;5074297;28;20875;-67
2022/04/03 06:46:26;;;;;;;0.40;0.40;;;0.80;99.90;;;;;;5074102;28;20949;-66
2022/04/03 06:49:13;;;;;;;0.60;0.60;;;0.70;99.90;;;;;;5073381;28;20490;-66
2022/04/03 06:52:01;;;;;;;2.60;1.03;;;0.70;99.90;;;;;;5073873;28;20479;-67
2022/04/03 06:54:47;;;;;;;0.80;0.80;;;0.80;99.90;;;;;;5074107;28;20810;-67
2022/04/03 06:57:34;;;;;;;0.50;0.50;;;1.20;99.90;;;;;;5074146;28;20425;-67
2022/04/03 07:00:23;;;;;;;0.50;0.50;;;1.50;99.90;;;;;;5073607;28;20423;-67
2022/04/03 07:03:10;;;;;;;1.23;1.23;;;1.70;99.90;;;;;;5073583;28;20451;-67
2022/04/03 07:05:57;;;;;;;0.40;0.40;;;;;;;;;;5073488;28;20507;-67
2022/04/03 07:08:45;;;;;;;0.77;0.77;;;1.70;99.90;;;;;;5073574;28;20433;-68
2022/04/03 07:11:32;;;;;;;0.50;0.50;;;1.70;99.90;;;;;;5073542;28;20467;-67
2022/04/03 07:14:19;;;;;;;1.23;1.23;;;1.70;99.90;;;;;;5074320;28;20428;-67
2022/04/03 07:17:07;;;;;;;0.47;0.47;;;1.80;99.90;;;;;;5073245;28;20427;-68
2022/04/03 07:19:55;;;;;;;0.60;0.60;;;2.00;99.90;;;;;;5072741;28;20427;-67
2022/04/03 07:22:42;;;;;;;0.50;0.50;;;2.10;99.90;;;;;;5074025;28;20463;-67
2022/04/03 07:25:29;;;;;;;0.50;0.50;;;2.20;99.90;;;;;;5074178;28;20435;-67
2022/04/03 07:28:16;;;;;;;0.50;0.50;;;2.40;99.90;;;;;;5073454;28;20424;-67
2022/04/03 07:31:03;;;;;;;0.40;0.40;;;2.60;99.90;;;;;;5073158;28;20995;-67
2022/04/03 07:33:51;;;;;;;0.40;0.40;;;2.70;99.90;;;;;;5072556;28;20435;-66
2022/04/03 07:36:38;;;;;;;0.40;0.40;;;2.90;99.90;;;;;;5072975;28;20937;-66
2022/04/03 07:39:26;;;;;;;0.40;0.40;;;3.00;99.90;;;;;;5073672;28;20459;-66
2022/04/03 07:42:13;;;;;;;0.40;0.40;;;3.10;99.90;;;;;;5072554;28;20518;-67
2022/04/03 07:44:59;;;;;;;0.50;0.50;;;3.40;99.90;;;;;;5073181;28;20416;-66
2022/04/03 07:47:48;;;;;;;0.40;0.40;;;3.50;99.90;;;;;;5072823;28;20458;-66
2022/04/03 07:50:37;;;;;;;0.60;0.60;;;3.60;99.90;;;;;;5073400;28;20442;-66
2022/04/03 07:53:24;;;;;;;0.50;0.50;;;3.50;99.90;;;;;;5097740;22;21135;-67
2022/04/03 07:56:11;;;;;;;0.50;0.50;;;3.60;99.90;;;;;;5072992;28;20428;-67
2022/04/03 07:58:58;;;;;;;0.63;0.63;;;3.80;99.90;;;;;;5073251;28;20806;-67
2022/04/03 08:01:45;;;;;;;0.60;0.60;;;3.90;99.90;;;;;;5073341;28;20440;-67
2022/04/03 08:04:32;;;;;;;0.60;0.60;;;4.10;99.90;;;;;;5073201;28;20423;-66
2022/04/03 08:07:20;;;;;;;0.50;0.50;;;4.00;99.90;;;;;;5074634;28;20425;-67
2022/04/03 08:10:09;;;;;;;0.40;0.40;;;4.00;99.90;;;;;;5076292;28;20420;-68
2022/04/03 08:12:56;;;;;;;0.40;0.40;;;4.00;99.90;;;;;;5085676;28;20593;-67
2022/04/03 08:15:43;;;;;;;1.13;1.13;;;4.10;99.90;;;;;;5089385;28;20426;-68
2022/04/03 08:18:30;;;;;;;0.70;0.70;;;4.20;99.90;;;;;;5086732;28;20435;-68
2022/04/03 08:21:18;;;;;;;0.50;0.50;;;4.10;99.90;;;;;;5072110;28;20416;-68
2022/04/03 08:24:07;;;;;;;0.50;0.50;;;4.10;99.60;;;;;;5072585;28;20495;-68
2022/04/03 08:26:53;;;;;;;0.50;0.50;;;4.20;99.80;;;;;;5072040;28;20428;-68
2022/04/03 08:29:40;;;;;;;4.57;2.50;;;4.50;99.80;;;;;;5071907;28;20423;-68
2022/04/03 08:32:27;;;;;;;0.60;0.60;;;4.50;98.30;;;;;;5073147;28;21033;-66
2022/04/03 08:35:15;;;;;;;0.60;0.60;;;4.50;98.30;;;;;;5073240;28;20427;-69
2022/04/03 08:38:02;;;;;;;1.90;0.80;;;4.30;97.70;;;;;;5073105;28;20432;-69
2022/04/03 08:40:50;;;;;;;0.40;0.40;;;4.20;98.10;;;;;;5072158;28;20458;-68
2022/04/03 08:43:40;;;;;;;0.50;0.50;;;4.20;97.90;;;;;;5072587;28;20448;-68
2022/04/03 08:46:27;;;;;;;0.50;0.50;;;4.30;98.00;;;;;;5072759;28;20427;-70
2022/04/03 08:49:14;;;;;;;0.50;0.50;;;4.70;97.70;;;;;;5071987;28;20939;-67
2022/04/03 08:52:02;;;;;;;0.43;0.43;;;5.00;96.70;;;;;;5073690;28;20463;-68
2022/04/03 08:54:50;;;;;;;0.57;0.57;;;5.10;96.20;;;;;;5074221;28;20442;-67
2022/04/03 08:57:38;;;;;;;0.50;0.50;;;5.40;94.00;;;;;;5075347;28;20432;-69
2022/04/03 09:00:25;;;;;;;0.70;0.70;;;5.50;93.50;;;;;;5083238;28;20953;-70
2022/04/03 09:03:13;;;;;;;0.40;0.40;;;5.50;92.00;;;;;;5076643;28;20492;-68
2022/04/03 09:06:14;;;;;;;1.27;1.17;;;5.50;92.10;;;;;;5075061;28;20420;-68
2022/04/03 09:09:02;;;;;;;0.50;0.50;;;5.40;91.60;;;;;;5073715;28;20427;-70
2022/04/03 09:12:08;;;;;;;0.40;0.40;;;5.60;91.90;;;;;;5073294;28;20471;-70
2022/04/03 09:14:57;;;;;;;2.07;1.93;;;5.80;91.30;;;;;;5077113;28;20419;-67
2022/04/03 09:17:46;;;;;;;0.50;0.50;;;5.90;91.60;;;;;;5076024;28;20420;-68
2022/04/03 09:20:36;;;;;;;3.33;3.07;;;6.10;90.90;;;;;;5075401;28;20420;-68
2022/04/03 09:23:23;;;;;;;0.83;0.83;;;6.10;90.80;;;;;;5075895;28;20442;-68
2022/04/03 09:26:18;;;;;;;0.60;0.60;;;6.20;85.90;;;;;;5076131;28;20424;-67
2022/04/03 09:29:13;;;;;;;1.23;1.23;;;6.20;84.40;;;;;;5076160;28;21009;-68
2022/04/03 09:32:03;;;;;;;0.50;0.50;;;6.00;83.70;;;;;;5075851;28;20481;-67
2022/04/03 09:34:55;;;;;;;1.07;0.87;;;5.90;80.60;;;;;;5075391;28;20439;-67
2022/04/03 09:38:07;;;;;;;1.83;1.73;;;6.20;76.70;;;;;;5076986;28;20419;-68
2022/04/03 09:40:55;;;;;;;0.70;0.70;;;6.00;75.40;;;;;;5076089;28;20809;-67
2022/04/03 09:43:42;;;;;;;0.90;0.83;;;6.10;74.80;;;;;;5074756;28;20423;-67
2022/04/03 09:46:30;;;;;;;0.50;0.50;;;6.10;73.60;;;;;;5076493;28;20431;-66
2022/04/03 09:49:24;;;;;;;7.73;1.00;;;6.40;73.90;;;;;;5075795;28;20415;-68
2022/04/03 09:52:11;;;;;;;0.50;0.50;;;6.70;73.30;;;;;;5075186;28;21115;-68
2022/04/03 09:54:58;;;;;;;0.97;0.73;;;6.70;73.50;;;;;;5075919;28;20423;-67
2022/04/03 09:57:46;;;;;;;0.83;0.80;;;6.80;73.70;;;;;;5075880;28;20979;-69
2022/04/03 10:00:37;;;;;;;0.50;0.50;;;6.70;73.90;;;;;;5074969;28;20514;-66
2022/04/03 10:03:24;;;;;;;0.77;0.77;;;6.70;74.50;;;;;;5075505;28;20440;-66
2022/04/03 10:06:13;;;;;;;0.90;0.90;;;6.50;73.20;;;;;;5075400;28;20416;-68
2022/04/03 10:09:01;;;;;;;1.57;1.00;;;6.60;73.50;;;;;;5074881;28;20431;-67
2022/04/03 10:11:48;;;;;;;0.50;0.50;;;6.60;73.40;;;;;;5075441;28;20463;-66
2022/04/03 10:14:35;;;;;;;0.70;0.70;;;6.70;73.70;;;;;;5075325;28;20426;-68
2022/04/03 10:17:22;;;;;;;0.60;0.60;;;6.60;72.10;;;;;;5076728;28;20939;-67
2022/04/03 10:20:10;;;;;;;0.60;0.60;;;6.80;73.00;;;;;;5075370;28;20434;-68
2022/04/03 10:23:04;;;;;;;0.50;0.50;;;6.90;71.80;;;;;;5074324;28;20432;-68
2022/04/03 10:25:55;;;;;;;0.40;0.40;;;7.10;71.60;;;;;;5074193;28;20416;-68
2022/04/03 10:28:48;;;;;;;0.97;0.87;;;6.90;71.10;;;;;;5073932;28;20423;-68
2022/04/03 10:31:36;;;;;;;0.50;0.50;;;6.60;73.10;;;;;;5074203;28;20428;-67
2022/04/03 10:34:23;;;;;;;0.50;0.50;;;6.60;71.80;;;;;;5074152;28;20428;-68
2022/04/03 10:37:23;;;;;;;0.50;0.50;;;6.90;70.60;;;;;;5074965;28;20431;-68
2022/04/03 10:40:15;;;;;;;2.20;1.07;;;7.20;71.10;;;;;;5074529;28;20696;-67
2022/04/03 10:43:06;;;;;;;0.50;0.50;;;7.30;69.60;;;;;;5074550;28;20436;-69
2022/04/03 10:45:53;;;;;;;0.50;0.50;;;6.90;68.40;;;;;;5074397;28;20428;-67
2022/04/03 10:48:40;;;;;;;0.50;0.50;;;7.00;69.50;;;;;;5073957;28;20815;-67
2022/04/03 10:51:30;;;;;;;0.50;0.50;;;7.30;69.60;;;;;;5074083;28;20423;-68
2022/04/03 10:54:30;;;;;;;0.57;0.57;;;7.70;69.00;;;;;;5074178;28;20420;-67
2022/04/03 10:57:34;;;;;;;0.60;0.60;;;7.80;67.70;;;;;;5073975;28;20430;-67
2022/04/03 11:00:41;;;;;;;0.70;0.70;;;7.80;66.70;;;;;;5075926;28;20931;-67
2022/04/03 11:03:37;;;;;;;0.47;0.47;;;7.60;66.90;;;;;;5073519;28;20439;-68
2022/04/03 11:06:32;;;;;;;2.30;1.23;;;7.50;67.30;;;;;;5075454;28;20424;-67
2022/04/03 11:09:24;;;;;;;2.83;0.80;;;7.30;67.80;;;;;;5076012;28;20500;-68
2022/04/03 11:12:11;;;;;;;0.60;0.60;;;7.10;68.30;;;;;;5074908;28;20468;-68
2022/04/03 11:14:59;;;;;;;0.60;0.60;;;7.00;68.20;;;;;;5075260;28;20427;-67
2022/04/03 11:17:52;;;;;;;0.40;0.40;;;7.30;68.60;;;;;;5075370;28;20430;-68
2022/04/03 11:20:42;;;;;;;0.50;0.50;;;7.70;68.10;;;;;;5074581;28;20431;-68
2022/04/03 11:23:30;;;;;;;0.50;0.50;;;8.30;66.40;;;;;;5073791;28;20497;-67
2022/04/03 11:26:18;;;;;;;2.90;0.77;;;8.40;65.30;;;;;;5073890;28;20432;-68
2022/04/03 11:29:06;;;;;;;4.00;1.63;;;8.50;65.40;;;;;;5074409;28;20894;-69
2022/04/03 11:31:55;;;;;;;0.50;0.50;;;8.50;65.40;;;;;;5074191;28;20443;-68
2022/04/03 11:34:42;;;;;;;0.43;0.43;;;8.20;66.50;;;;;;5081386;28;20449;-68
2022/04/03 11:37:29;;;;;;;1.17;0.80;;;8.00;66.50;;;;;;5074788;28;20801;-68
2022/04/03 11:40:16;;;;;;;0.40;0.40;;;8.20;67.20;;;;;;5072789;28;20423;-70
2022/04/03 11:43:11;;;;;;;0.50;0.50;;;8.30;67.20;;;;;;5073660;28;20439;-68
2022/04/03 11:45:59;;;;;;;11.63;1.00;;;8.20;66.80;;;;;;5073776;28;20469;-69
2022/04/03 11:48:47;;;;;;;0.60;0.60;;;8.20;67.80;;;;;;5074192;28;20800;-67
2022/04/03 11:51:34;;;;;;;0.50;0.50;;;8.30;68.20;;;;;;5074042;28;20515;-69
2022/04/03 11:54:21;;;;;;;0.70;0.70;;;8.30;68.30;;;;;;5073369;28;20422;-67
2022/04/03 11:57:10;;;;;;;0.80;0.80;;;8.20;68.00;;;;;;5089590;28;20424;-67
2022/04/03 11:59:57;;;;;;;0.77;0.63;;;8.00;69.20;;;;;;5088364;28;21029;-68
2022/04/03 12:02:44;;;;;;;0.47;0.47;;;7.80;69.60;;;;;;5085362;28;20447;-69
2022/04/03 12:05:32;;;;;;;1.23;1.23;;;7.70;69.70;;;;;;5086989;28;20894;-67
2022/04/03 12:08:19;;;;;;;0.53;0.53;;;7.40;70.80;;;;;;5081736;28;20423;-67
2022/04/03 12:11:23;;;;;;;1.23;1.07;;;7.30;71.70;;;;;;5082285;28;20457;-67
2022/04/03 12:14:10;;;;;;;1.83;0.93;;;7.20;72.70;;;;;;5086625;28;20554;-66
2022/04/03 12:17:00;;;;;;;0.40;0.40;;;7.30;73.60;;;;;;5083499;28;20419;-67
2022/04/03 12:19:48;;;;;;;0.70;0.70;;;7.60;73.90;;;;;;5084882;28;20931;-69
2022/04/03 12:22:41;;;;;;;0.80;0.80;;;7.90;72.80;;;;;;5081303;28;20436;-68
2022/04/03 12:25:30;;;;;;;0.50;0.50;;;8.00;72.50;;;;;;5083062;28;20447;-67
2022/04/03 12:28:22;;;;;;;0.40;0.40;;;8.00;72.60;;;;;;5077159;28;20910;-70
2022/04/03 12:31:13;;;;;;;0.40;0.40;;;8.00;73.00;;;;;;5072572;28;20430;-68
2022/04/03 12:34:05;;;;;;;1.83;0.70;;;7.90;73.50;;;;;;5072384;28;20486;-68
2022/04/03 12:36:54;;;;;;;0.90;0.90;;;7.80;73.20;;;;;;5073279;28;20943;-68
2022/04/03 12:39:44;;;;;;;0.50;0.50;;;7.90;72.20;;;;;;5073834;28;20435;-68
2022/04/03 12:42:33;;;;;;;0.50;0.50;;;7.80;72.70;;;;;;5072797;28;20450;-68
2022/04/03 12:45:21;;;;;;;0.80;0.70;;;7.80;73.50;;;;;;5075334;28;20420;-70
2022/04/03 12:48:08;;;;;;;0.40;0.40;;;7.70;74.40;;;;;;5072225;28;20529;-67
2022/04/03 12:50:55;;;;;;;0.87;0.70;;;7.80;74.70;;;;;;5072215;28;20958;-68
2022/04/03 12:53:50;;;;;;;1.27;0.70;;;8.10;73.80;;;;;;5071660;28;20474;-68
2022/04/03 12:59:57;;;;;;;1.57;1.10;;;9.50;72.00;;;;;;5011106;28;20430;-68
2022/04/03 13:02:45;;;;;;;1.63;1.53;;;9.70;70.10;;;;;;5008907;28;20553;-68
2022/04/03 13:05:33;;;;;;;0.50;0.50;;;9.40;70.60;;;;;;5062259;28;21169;-69
2022/04/03 13:08:20;;;;;;;0.47;0.47;;;9.30;70.90;;;;;;5072453;28;20438;-71
2022/04/03 13:11:07;;;;;;;0.80;0.80;;;9.70;71.40;;;;;;5072105;28;20423;-67
2022/04/03 13:13:56;;;;;;;0.73;0.73;;;10.80;68.70;;;;;;5071686;28;20485;-70
2022/04/03 13:16:43;;;;;;;0.70;0.60;;;10.80;67.20;;;;;;5072656;28;20830;-69
2022/04/03 13:19:32;;;;;;;0.60;0.60;;;10.30;68.60;;;;;;5072141;28;20848;-68
2022/04/03 13:22:19;;;;;;;0.93;0.90;;;9.60;71.20;;;;;;5071025;28;20455;-67
2022/04/03 13:25:07;;;;;;;1.00;0.90;;;9.30;73.90;;;;;;5073139;28;20427;-69
2022/04/03 13:27:54;;;;;;;0.50;0.50;;;9.20;75.10;;;;;;5072154;28;20435;-67
2022/04/03 13:30:43;;;;;;;0.40;0.40;;;9.10;75.80;;;;;;5072224;28;20424;-68
2022/04/03 13:33:30;;;;;;;1.07;1.00;;;9.40;76.50;;;;;;5071615;28;20550;-68
2022/04/03 13:36:17;;;;;;;0.40;0.40;;;11.00;73.50;;;;;;5071138;28;20424;-68
2022/04/03 13:39:06;;;;;;;0.50;0.47;;;11.10;71.30;;;;;;5071711;28;20424;-69
2022/04/03 13:41:55;;;;;;;0.50;0.50;;;10.80;71.90;;;;;;5071826;28;20450;-71
2022/04/03 13:44:42;;;;;;;2.43;1.60;;;9.80;73.90;;;;;;5073039;28;20756;-70
2022/04/03 13:47:30;;;;;;;1.47;0.60;;;9.30;75.50;;;;;;5072094;28;20423;-68
2022/04/03 13:50:17;;;;;;;1.10;0.70;;;8.90;76.50;;;;;;5073867;28;20427;-69
2022/04/03 13:53:04;;;;;;;0.70;0.57;;;8.80;77.40;;;;;;5073149;28;20475;-70
2022/04/03 13:55:52;;;;;;;0.50;0.50;;;8.80;77.30;;;;;;5074189;28;20924;-68
2022/04/03 13:58:39;;;;;;;0.50;0.50;;;8.80;77.90;;;;;;5059569;28;20784;-68
2022/04/03 14:01:27;;;;;;;0.80;0.80;;;8.50;78.40;;;;;;5063940;28;20800;-69
2022/04/03 14:04:15;;;;;;;0.50;0.50;;;8.30;79.60;;;;;;5065296;28;20515;-69
2022/04/03 14:07:02;;;;;;;0.60;0.60;;;8.20;80.80;;;;;;5063312;28;20424;-68
2022/04/03 14:09:49;;;;;;;0.40;0.40;;;8.20;81.80;;;;;;5064762;28;20454;-68
2022/04/03 14:12:37;;;;;;;0.60;0.60;;;8.40;82.90;;;;;;5065738;28;20444;-68
2022/04/03 14:15:24;;;;;;;0.73;0.73;;;8.30;84.80;;;;;;5067975;28;20470;-68
2022/04/03 14:18:11;;;;;;;0.50;0.50;;;8.10;85.50;;;;;;5068276;28;20781;-68
2022/04/03 14:21:00;;;;;;;1.10;0.50;;;7.90;86.10;;;;;;5071456;28;20421;-67
2022/04/03 14:23:47;;;;;;;0.50;0.50;;;7.60;86.70;;;;;;5070985;28;20432;-67
2022/04/03 14:26:34;;;;;;;0.80;0.80;;;7.70;87.50;;;;;;5061533;28;20424;-68
2022/04/03 14:29:21;;;;;;;0.50;0.50;;;7.80;87.10;;;;;;5056171;28;20424;-68
2022/04/03 14:32:09;;;;;;;0.67;0.67;;;7.80;88.00;;;;;;5054781;28;20455;-68
2022/04/03 14:34:56;;;;;;;0.50;0.50;;;7.90;88.30;;;;;;5057430;28;21000;-67
2022/04/03 14:37:45;;;;;;;1.03;0.80;;;8.00;88.40;;;;;;5056629;28;20819;-66
2022/04/03 14:40:33;;;;;;;0.50;0.50;;;8.30;88.60;;;;;;5056563;28;20813;-68
2022/04/03 14:43:20;;;;;;;1.53;1.43;;;8.30;88.60;;;;;;5056386;28;20457;-68
2022/04/03 14:46:07;;;;;;;0.50;0.50;;;8.40;88.10;;;;;;5054175;28;20945;-68